Time;durP1;ratioP1;P1;durP2;ratioP2;P2;SDS_P1;SDS_P2;PMS_P1;PMS_P2;Temp;Humidity;BMP_temperature;BMP_pressure;BME280_temperature;BME280_humidity;BME280_pressure;Samples;Min_cycle;Max_cycle;Signal;HPM_P1;HPM_P2
2023/04/10 00:01:37;;;;;;;6.05;3.58;;;;;;;6.58;77.40;92989.63;5110816;28;20032;-76
2023/04/10 00:04:03;;;;;;;6.93;3.58;;;;;;;6.50;78.04;92997.88;5111218;28;20031;-76
2023/04/10 00:06:30;;;;;;;5.55;3.50;;;;;;;6.62;77.13;92993.28;5092779;28;20130;-76
2023/04/10 00:08:57;;;;;;;5.60;3.58;;;;;;;6.56;77.29;92983.88;5092695;28;20039;-76
2023/04/10 00:11:24;;;;;;;6.43;3.95;;;;;;;6.56;77.88;92989.06;5086977;28;20114;-76
2023/04/10 00:13:49;;;;;;;6.18;3.63;;;;;;;6.50;77.64;92986.69;5110650;28;20047;-76
2023/04/10 00:16:15;;;;;;;5.80;3.58;;;;;;;6.44;78.27;92991.84;5092169;28;20035;-76
2023/04/10 00:18:41;;;;;;;5.38;3.50;;;;;;;6.69;76.59;92995.69;5114472;28;20065;-76
2023/04/10 00:21:06;;;;;;;6.47;3.90;;;;;;;6.60;76.77;92994.59;5114683;28;20050;-76
2023/04/10 00:23:33;;;;;;;5.45;3.55;;;;;;;6.49;77.24;92992.94;5114811;28;20035;-76
2023/04/10 00:26:01;;;;;;;5.85;3.60;;;;;;;6.49;77.13;92998.13;5062890;28;20051;-76
2023/04/10 00:28:27;;;;;;;7.95;3.50;;;;;;;6.43;77.77;92995.47;5112647;28;20424;-76
2023/04/10 00:30:52;;;;;;;5.63;3.55;;;;;;;6.41;77.68;92997.53;5096328;28;20145;-77
2023/04/10 00:33:18;;;;;;;7.30;3.55;;;;;;;6.46;78.31;93002.78;5062786;28;20119;-75
2023/04/10 00:35:43;;;;;;;6.07;3.40;;;;;;;6.41;77.92;92992.31;5096398;28;20559;-76
2023/04/10 00:38:09;;;;;;;5.15;3.30;;;;;;;6.38;78.26;93000.63;5114140;28;20089;-76
2023/04/10 00:40:35;;;;;;;5.85;3.50;;;;;;;6.37;78.22;93000.88;5096195;28;20100;-75
2023/04/10 00:43:00;;;;;;;8.07;3.97;;;;;;;6.40;77.59;92993.38;5095607;28;20493;-76
2023/04/10 00:45:26;;;;;;;5.15;3.13;;;;;;;6.50;77.57;92989.28;5107509;28;20036;-76
2023/04/10 00:47:52;;;;;;;6.25;3.60;;;;;;;6.62;76.64;92987.28;5069077;28;20046;-76
2023/04/10 00:50:19;;;;;;;5.60;3.38;;;;;;;6.51;77.68;92993.44;5100785;28;20402;-76
2023/04/10 00:52:45;;;;;;;8.38;4.05;;;;;;;6.43;78.61;92987.66;5075587;28;20462;-76
2023/04/10 00:55:11;;;;;;;6.20;3.60;;;;;;;6.43;78.87;92985.06;5059027;28;20123;-76
2023/04/10 00:57:36;;;;;;;5.93;3.67;;;;;;;6.39;79.24;92981.38;5075648;28;20405;-76
2023/04/10 01:00:03;;;;;;;5.90;3.55;;;;;;;6.36;80.31;92981.91;5075489;28;20486;-76
2023/04/10 01:02:30;;;;;;;5.18;3.58;;;;;;;6.36;80.37;92984.50;5075437;28;20047;-76
2023/04/10 01:04:57;;;;;;;5.32;3.50;;;;;;;6.33;79.97;92987.59;5075731;28;20028;-77
2023/04/10 01:07:50;;;;;;;5.57;3.50;;;;;;;6.35;79.22;92987.34;5094937;28;20034;-77
2023/04/10 01:10:34;;;;;;;5.70;3.45;;;;;;;6.29;79.19;92983.91;5103964;28;20044;-77
2023/04/10 01:13:15;;;;;;;5.55;3.10;;;;;;;6.27;78.91;92980.00;5113038;28;20040;-77
2023/04/10 01:15:56;;;;;;;5.53;3.53;;;;;;;6.29;78.83;92985.75;5113652;28;20028;-77
2023/04/10 01:18:43;;;;;;;6.47;3.30;;;;;;;6.25;78.80;92985.44;5095591;28;20028;-77
2023/04/10 01:21:13;;;;;;;6.97;3.47;;;;;;;6.32;78.44;92985.25;5112309;28;20027;-77
2023/04/10 01:24:16;;;;;;;7.53;3.83;;;;;;;6.26;78.92;92989.63;5095253;28;20035;-77
2023/04/10 01:26:54;;;;;;;6.40;3.30;;;;;;;6.24;78.76;92983.88;5094933;28;20035;-77
2023/04/10 01:29:26;;;;;;;6.53;3.25;;;;;;;6.19;79.46;92986.41;5074441;28;20036;-77
2023/04/10 01:32:17;;;;;;;5.25;3.42;;;;;;;6.22;79.39;92985.94;5074942;28;20061;-77
2023/04/10 01:34:45;;;;;;;5.20;3.50;;;;;;;6.15;80.47;92983.53;5074387;28;20504;-77
2023/04/10 01:37:16;;;;;;;5.10;3.35;;;;;;;6.19;79.89;92989.00;5074347;28;20283;-75
2023/04/10 01:39:44;;;;;;;6.65;3.25;;;;;;;6.15;79.88;92978.34;5074936;28;20519;-76
2023/04/10 01:42:14;;;;;;;5.47;3.15;;;;;;;6.13;80.22;92979.63;5074500;28;20056;-75
2023/04/10 01:44:43;;;;;;;6.80;3.75;;;;;;;6.16;79.76;92984.31;5104979;28;20101;-76
2023/04/10 01:47:09;;;;;;;5.70;3.38;;;;;;;6.14;80.25;92986.38;5078880;28;20036;-76
2023/04/10 01:49:41;;;;;;;5.22;3.30;;;;;;;6.09;79.81;92981.91;5085239;28;20042;-76
2023/04/10 01:52:08;;;;;;;6.25;3.90;;;;;;;6.12;80.59;92989.22;5077685;28;20511;-76
2023/04/10 01:54:34;;;;;;;5.60;3.20;;;;;;;6.17;80.66;92991.06;5061490;28;20119;-76
2023/04/10 01:57:02;;;;;;;5.65;3.47;;;;;;;6.09;81.44;92994.91;5074652;28;20044;-76
2023/04/10 01:59:31;;;;;;;5.38;3.17;;;;;;;6.02;82.27;92989.91;5074357;28;20032;-76
2023/04/10 02:01:58;;;;;;;5.95;3.95;;;;;;;5.99;83.02;92985.22;5074213;28;20030;-76
2023/04/10 02:04:27;;;;;;;5.32;3.47;;;;;;;6.01;82.24;92987.53;5074221;28;20046;-76
2023/04/10 02:07:03;;;;;;;7.82;3.50;;;;;;;6.10;81.79;92980.09;5074178;28;20039;-76
2023/04/10 02:09:53;;;;;;;5.55;3.45;;;;;;;6.08;81.82;92982.16;5074093;28;20398;-76
2023/04/10 02:12:25;;;;;;;7.18;3.05;;;;;;;5.99;81.75;92987.81;5078013;28;20035;-76
2023/04/10 02:14:52;;;;;;;5.95;3.47;;;;;;;5.93;81.26;92980.97;5074004;28;20063;-76
2023/04/10 02:17:25;;;;;;;5.15;3.13;;;;;;;5.95;81.55;92988.53;5073868;28;20028;-76
2023/04/10 02:19:52;;;;;;;;;;;;;;;5.90;81.49;92986.66;5074465;28;20028;-76
2023/04/10 02:22:18;;;;;;;5.45;3.40;;;;;;;5.88;81.24;92993.91;5073416;28;20378;-76
2023/04/10 02:24:43;;;;;;;6.45;3.40;;;;;;;5.84;81.44;92998.78;5074117;28;20031;-76
2023/04/10 02:27:09;;;;;;;5.97;3.25;;;;;;;5.81;81.63;93004.50;5057251;28;20032;-76
2023/04/10 02:29:35;;;;;;;5.57;3.55;;;;;;;5.79;82.05;93000.56;5088722;28;20061;-76
2023/04/10 02:32:02;;;;;;;5.13;3.30;;;;;;;5.77;82.14;93002.63;5093973;28;20045;-76
2023/04/10 02:34:28;;;;;;;7.22;3.58;;;;;;;5.76;82.02;93001.03;5094018;28;20047;-76
2023/04/10 02:36:53;;;;;;;5.65;3.83;;;;;;;5.76;81.04;92998.44;5112116;28;20471;-76
2023/04/10 02:39:20;;;;;;;4.97;3.17;;;;;;;5.83;80.73;92999.03;5093501;28;20032;-76
2023/04/10 02:41:50;;;;;;;6.00;3.20;;;;;;;5.78;82.24;93010.16;5093369;28;20078;-76
2023/04/10 02:44:16;;;;;;;4.93;2.95;;;;;;;5.84;81.37;93000.63;5093548;28;20043;-76
2023/04/10 02:46:42;;;;;;;5.68;3.38;;;;;;;5.79;81.69;93001.34;5089945;28;20092;-76
2023/04/10 02:49:08;;;;;;;6.85;3.17;;;;;;;5.74;81.92;93003.09;5056521;28;20020;-76
2023/04/10 02:51:35;;;;;;;6.95;3.40;;;;;;;5.70;81.77;92996.84;5073485;28;20047;-76
2023/04/10 02:54:01;;;;;;;5.72;3.40;;;;;;;5.68;82.38;92998.88;5073375;28;20035;-76
2023/04/10 02:56:32;;;;;;;5.53;3.50;;;;;;;5.65;82.56;93000.13;5057318;28;20040;-76
2023/04/10 02:58:57;;;;;;;6.47;3.53;;;;;;;5.63;82.83;93002.22;5056987;28;20039;-76
2023/04/10 03:01:23;;;;;;;5.55;3.60;;;;;;;5.60;83.10;92998.25;5073319;28;20032;-76
2023/04/10 03:03:49;;;;;;;5.88;3.65;;;;;;;5.58;83.11;93002.13;5076724;28;20044;-76
2023/04/10 03:06:27;;;;;;;5.65;3.58;;;;;;;5.55;83.88;93000.81;5090263;28;20501;-76
2023/04/10 03:08:55;;;;;;;6.22;3.80;;;;;;;5.53;83.68;92996.88;5090101;28;20028;-76
2023/04/10 03:11:21;;;;;;;6.05;3.40;;;;;;;5.52;83.89;93001.31;5073139;28;20044;-76
2023/04/10 03:13:47;;;;;;;6.18;3.78;;;;;;;5.53;83.77;93004.69;5090129;28;20038;-76
2023/04/10 03:16:14;;;;;;;6.32;3.42;;;;;;;5.48;83.23;93000.22;5072802;28;20562;-76
2023/04/10 03:18:41;;;;;;;5.25;3.40;;;;;;;5.46;83.53;92997.06;5072983;28;20039;-76
2023/04/10 03:21:06;;;;;;;5.20;3.38;;;;;;;5.50;83.64;92997.38;5090337;28;20023;-76
2023/04/10 03:23:32;;;;;;;6.20;3.60;;;;;;;5.56;83.27;92991.19;5072970;28;20433;-76
2023/04/10 03:25:58;;;;;;;5.10;3.25;;;;;;;5.45;84.07;93000.69;5091149;28;20088;-76
2023/04/10 03:28:26;;;;;;;5.78;3.33;;;;;;;5.47;83.75;92997.84;5089072;28;20047;-76
2023/04/10 03:30:52;;;;;;;6.30;3.38;;;;;;;5.35;84.13;92997.97;5073387;28;20498;-76
2023/04/10 03:33:18;;;;;;;6.07;3.50;;;;;;;5.30;83.83;93003.88;5090868;28;20040;-76
2023/04/10 03:35:45;;;;;;;5.35;3.45;;;;;;;5.27;83.73;93006.97;5072941;28;20024;-76
2023/04/10 03:38:11;;;;;;;7.25;3.25;;;;;;;5.24;84.31;93004.06;5087085;28;20028;-76
2023/04/10 03:40:36;;;;;;;5.30;3.30;;;;;;;5.26;84.62;93004.59;5056065;28;20401;-76
2023/04/10 03:43:04;;;;;;;6.05;3.40;;;;;;;5.28;83.15;93011.13;5073480;28;20051;-76
2023/04/10 03:45:32;;;;;;;5.72;3.40;;;;;;;5.25;82.50;93005.66;5076880;28;20497;-76
2023/04/10 03:47:59;;;;;;;5.45;3.05;;;;;;;5.22;82.80;93012.06;5072339;28;20028;-76
2023/04/10 03:50:24;;;;;;;5.55;3.33;;;;;;;5.16;82.44;93008.66;5092638;28;20044;-76
2023/04/10 03:52:55;;;;;;;6.40;3.25;;;;;;;5.16;81.88;93008.66;5094843;28;20400;-76
2023/04/10 03:55:23;;;;;;;5.38;3.38;;;;;;;5.17;81.31;93009.41;5097105;28;20100;-76
2023/04/10 03:57:50;;;;;;;5.82;3.35;;;;;;;5.13;81.68;93011.69;5080253;28;20496;-76
2023/04/10 04:00:17;;;;;;;5.18;3.30;;;;;;;5.12;81.41;93015.31;5079446;28;20489;-76
2023/04/10 04:02:46;;;;;;;6.13;3.60;;;;;;;5.14;80.99;93020.28;5115647;28;20039;-76
2023/04/10 04:05:16;;;;;;;5.65;3.20;;;;;;;5.08;81.33;93016.81;5096471;28;20135;-76
2023/04/10 04:08:00;;;;;;;4.72;3.00;;;;;;;5.05;81.15;93017.31;5096741;28;20063;-76
2023/04/10 04:10:32;;;;;;;4.82;2.85;;;;;;;5.01;81.06;93017.00;5097001;28;20046;-76
2023/04/10 04:13:21;;;;;;;5.30;2.90;;;;;;;4.98;81.62;93024.47;5101174;28;20101;-76
2023/04/10 04:15:54;;;;;;;6.00;3.30;;;;;;;4.93;81.55;93014.00;5101673;28;20032;-76
2023/04/10 04:18:43;;;;;;;5.22;3.28;;;;;;;4.91;81.76;93023.84;5094468;28;20587;-76
2023/04/10 04:21:26;;;;;;;4.97;3.05;;;;;;;4.89;82.04;93018.91;5093465;28;20047;-76
2023/04/10 04:24:12;;;;;;;4.70;3.00;;;;;;;4.85;82.15;93033.38;5093329;28;20036;-76
2023/04/10 04:27:10;;;;;;;6.28;3.22;;;;;;;4.83;82.07;93025.03;5070872;28;20051;-76
2023/04/10 04:29:59;;;;;;;5.20;3.20;;;;;;;4.79;82.88;93027.31;5087884;28;20055;-76
2023/04/10 04:32:44;;;;;;;6.30;3.33;;;;;;;4.76;83.47;93027.78;5095471;28;20100;-76
2023/04/10 04:35:30;;;;;;;5.18;3.00;;;;;;;4.68;84.42;93028.19;5098829;28;20043;-76
2023/04/10 04:38:15;;;;;;;6.03;3.30;;;;;;;4.65;84.19;93028.66;5084939;28;20043;-76
2023/04/10 04:41:10;;;;;;;6.05;3.60;;;;;;;4.59;84.97;93027.00;5106145;28;20513;-76
2023/04/10 04:44:00;;;;;;;6.45;3.03;;;;;;;4.54;84.65;93032.13;5112933;28;20109;-76
2023/04/10 04:46:42;;;;;;;5.38;3.40;;;;;;;4.51;84.55;93030.00;5081538;28;20044;-76
2023/04/10 04:49:20;;;;;;;6.70;3.45;;;;;;;4.48;84.17;93036.44;5064422;28;20036;-76
2023/04/10 04:52:03;;;;;;;5.32;2.92;;;;;;;4.48;84.27;93031.25;5078691;28;20047;-76
2023/04/10 04:54:55;;;;;;;5.05;3.00;;;;;;;4.46;84.96;93025.53;5100105;28;20086;-76
2023/04/10 04:57:55;;;;;;;5.22;3.15;;;;;;;4.44;85.58;93026.78;4991882;28;20047;-76
2023/04/10 05:00:40;;;;;;;6.57;3.33;;;;;;;4.42;85.35;93027.00;5055408;28;20457;-76
2023/04/10 05:03:20;;;;;;;5.07;3.20;;;;;;;4.41;86.27;93030.59;5073622;28;20351;-76
2023/04/10 05:06:11;;;;;;;5.38;3.10;;;;;;;4.37;86.69;93032.91;5062209;28;20047;-76
2023/04/10 05:08:51;;;;;;;5.70;3.20;;;;;;;4.32;87.34;93042.38;5093449;28;20028;-76
2023/04/10 05:11:29;;;;;;;7.13;3.40;;;;;;;4.29;87.88;93040.25;5079051;28;20192;-76
2023/04/10 05:14:14;;;;;;;7.78;3.38;;;;;;;4.31;88.03;93046.00;5113871;28;20465;-76
2023/04/10 05:17:18;;;;;;;5.50;3.20;;;;;;;4.36;87.85;93052.03;5019504;28;20123;-76
2023/04/10 05:19:51;;;;;;;4.70;3.22;;;;;;;4.41;87.72;93045.38;5014021;28;20033;-76
2023/04/10 05:22:39;;;;;;;5.05;3.15;;;;;;;4.52;87.75;93041.94;5074692;28;20074;-76
2023/04/10 05:25:25;;;;;;;5.85;3.47;;;;;;;4.59;86.97;93045.16;5097847;28;20047;-76
2023/04/10 05:28:07;;;;;;;6.00;3.20;;;;;;;4.66;86.28;93048.41;5095406;28;20040;-75
2023/04/10 05:30:48;;;;;;;5.40;3.25;;;;;;;4.72;85.75;93050.03;5082612;28;20051;-76
2023/04/10 05:33:42;;;;;;;4.47;3.05;;;;;;;4.82;85.37;93053.81;5061511;28;20136;-74
2023/04/10 05:36:22;;;;;;;5.00;3.10;;;;;;;4.83;85.00;93048.38;5074412;28;20074;-76
2023/04/10 05:39:02;;;;;;;5.05;3.10;;;;;;;4.88;84.39;93055.47;5073781;28;20498;-76
2023/04/10 05:41:38;;;;;;;5.38;3.28;;;;;;;4.90;83.59;93056.00;5074860;28;20130;-76
2023/04/10 05:44:25;;;;;;;5.45;3.05;;;;;;;4.91;83.40;93057.56;5075071;28;20124;-76
2023/04/10 05:47:09;;;;;;;5.20;3.40;;;;;;;4.96;82.36;93061.03;5085907;28;20090;-76
2023/04/10 05:49:37;;;;;;;7.88;3.70;;;;;;;4.98;82.11;93059.00;5096313;28;20481;-76
2023/04/10 05:52:26;;;;;;;4.70;3.00;;;;;;;5.03;82.38;93060.88;5055529;28;20051;-76
2023/04/10 05:55:10;;;;;;;6.75;3.60;;;;;;;5.08;81.47;93063.53;5086257;28;20035;-76
2023/04/10 05:58:06;;;;;;;7.22;3.30;;;;;;;5.08;82.00;93065.34;5101022;28;20040;-76
2023/04/10 06:01:10;;;;;;;5.00;3.15;;;;;;;5.14;81.44;93060.00;5017165;28;20617;-76
2023/04/10 06:03:45;;;;;;;5.07;3.28;;;;;;;5.23;81.62;93065.56;5012424;28;20049;-76
2023/04/10 06:06:11;;;;;;;5.88;3.38;;;;;;;5.35;81.36;93063.66;5048023;28;20070;-75
2023/04/10 06:08:44;;;;;;;5.18;3.15;;;;;;;5.55;79.61;93068.34;5083885;28;20035;-79
2023/04/10 06:11:10;;;;;;;6.15;3.08;;;;;;;5.72;78.17;93073.50;5081054;28;20040;-78
2023/04/10 06:13:36;;;;;;;6.18;3.53;;;;;;;5.86;76.85;93079.09;5097934;28;20492;-78
2023/04/10 06:16:03;;;;;;;6.20;3.55;;;;;;;5.98;76.61;93079.78;5098712;28;20036;-78
2023/04/10 06:18:31;;;;;;;8.18;3.40;;;;;;;6.09;75.32;93078.09;5094838;28;20062;-77
2023/04/10 06:21:00;;;;;;;5.55;3.25;;;;;;;6.32;73.47;93082.22;5112189;28;20035;-78
2023/04/10 06:23:27;;;;;;;6.63;3.10;;;;;;;6.64;73.44;93074.47;5118012;28;20045;-79
2023/04/10 06:25:59;;;;;;;6.57;3.90;;;;;;;6.86;72.11;93074.38;5108300;28;20028;-77
2023/04/10 06:28:25;;;;;;;;;;;;;;;7.13;70.63;93080.56;5098217;28;20067;-77
2023/04/10 06:30:54;;;;;;;5.82;3.53;;;;;;;7.17;70.69;93086.84;5098931;28;19945;-77
2023/04/10 06:33:30;;;;;;;4.63;2.92;;;;;;;7.12;67.85;93082.41;5079748;28;20350;-78
2023/04/10 06:35:56;;;;;;;5.63;3.25;;;;;;;7.37;69.99;93081.00;5094672;28;20076;-76
2023/04/10 06:38:22;;;;;;;3.60;2.28;;;;;;;8.03;68.40;93078.72;5085836;28;20034;-76
2023/04/10 06:40:48;;;;;;;4.18;2.63;;;;;;;8.58;64.93;93088.78;5074214;28;20065;-76
2023/04/10 06:43:14;;;;;;;4.03;2.50;;;;;;;8.72;63.17;93084.66;5106589;28;20054;-76
2023/04/10 06:45:39;;;;;;;4.47;2.78;;;;;;;8.72;62.43;93090.66;5111583;28;20039;-76
2023/04/10 06:48:07;;;;;;;5.20;2.97;;;;;;;9.14;63.05;93091.44;5085933;28;20033;-76
2023/04/10 06:50:33;;;;;;;5.07;3.35;;;;;;;9.93;62.69;93079.56;5102183;28;20040;-76
2023/04/10 06:53:04;;;;;;;5.55;3.30;;;;;;;10.66;57.83;93083.41;5059046;28;20050;-77
2023/04/10 06:55:30;;;;;;;5.60;3.58;;;;;;;10.83;53.90;93083.84;5076671;28;20040;-78
2023/04/10 06:57:56;;;;;;;5.43;3.40;;;;;;;10.92;54.95;93091.91;5094150;28;20028;-78
2023/04/10 07:00:23;;;;;;;4.70;2.95;;;;;;;11.20;53.58;93086.97;5076228;28;20064;-77
2023/04/10 07:02:53;;;;;;;5.45;3.03;;;;;;;11.37;50.96;93082.09;5077117;28;20043;-77
2023/04/10 07:05:19;;;;;;;4.60;2.85;;;;;;;11.40;52.44;93086.78;5102385;28;20085;-77
2023/04/10 07:07:46;;;;;;;5.82;2.88;;;;;;;11.03;54.43;93075.06;5093855;28;20031;-77
2023/04/10 07:10:13;;;;;;;7.75;2.95;;;;;;;11.20;56.74;93081.72;5094601;28;20406;-78
2023/04/10 07:12:38;;;;;;;5.07;2.42;;;;;;;11.31;53.36;93079.81;5094931;28;20121;-77
2023/04/10 07:15:04;;;;;;;4.35;2.80;;;;;;;10.68;51.72;93078.69;5101508;28;20466;-77
2023/04/10 07:17:32;;;;;;;4.53;2.90;;;;;;;10.30;54.10;93083.59;5113366;28;20094;-79
2023/04/10 07:20:00;;;;;;;5.05;2.83;;;;;;;10.22;56.00;93086.75;5078133;28;20031;-78
2023/04/10 07:22:31;;;;;;;4.68;2.70;;;;;;;9.75;57.98;93080.91;5093020;28;20043;-77
2023/04/10 07:25:01;;;;;;;5.15;2.78;;;;;;;10.03;57.20;93078.72;5060106;28;20400;-77
2023/04/10 07:27:28;;;;;;;3.60;2.10;;;;;;;9.88;56.24;93073.53;5094756;28;20472;-78
2023/04/10 07:29:55;;;;;;;4.97;2.55;;;;;;;9.76;57.75;93082.47;5093901;28;20028;-78
2023/04/10 07:32:22;;;;;;;4.80;2.90;;;;;;;9.89;57.64;93085.59;5094560;28;20153;-78
2023/04/10 07:34:54;;;;;;;5.28;2.90;;;;;;;9.63;57.55;93077.78;5094090;28;20051;-77
2023/04/10 07:37:25;;;;;;;4.15;2.67;;;;;;;9.40;59.90;93084.38;5093839;28;20047;-78
2023/04/10 07:39:52;;;;;;;3.60;2.13;;;;;;;9.49;57.89;93076.78;5093653;28;20028;-78
2023/04/10 07:42:17;;;;;;;4.22;2.53;;;;;;;9.10;58.63;93075.53;5093320;28;20070;-78
2023/04/10 07:44:46;;;;;;;3.13;2.00;;;;;;;9.35;58.83;93085.16;5075808;28;20048;-78
2023/04/10 07:47:12;;;;;;;4.22;2.58;;;;;;;9.35;58.36;93087.78;5093501;28;20032;-77
2023/04/10 07:49:40;;;;;;;4.60;3.00;;;;;;;9.41;56.64;93090.38;5074767;28;20031;-77
2023/04/10 07:52:06;;;;;;;4.60;2.88;;;;;;;9.62;58.26;93083.31;5093370;28;20044;-77
2023/04/10 07:54:35;;;;;;;4.20;2.80;;;;;;;9.54;57.34;93087.22;5093961;28;20035;-78
2023/04/10 07:57:01;;;;;;;4.93;2.83;;;;;;;9.23;57.58;93082.06;5092998;28;20031;-76
2023/04/10 07:59:28;;;;;;;4.50;2.80;;;;;;;9.51;57.70;93088.53;5074497;28;20486;-76
2023/04/10 08:01:54;;;;;;;4.80;2.70;;;;;;;9.61;55.84;93074.66;5102380;28;20401;-76
2023/04/10 08:04:20;;;;;;;3.70;2.30;;;;;;;9.67;57.00;93084.06;5112390;28;20493;-76
2023/04/10 08:06:46;;;;;;;4.70;2.17;;;;;;;9.86;56.49;93080.88;5112604;28;20076;-77
2023/04/10 08:09:11;;;;;;;5.90;2.90;;;;;;;9.98;56.90;93083.97;5112410;28;20044;-76
2023/04/10 08:11:37;;;;;;;4.25;2.50;;;;;;;9.91;55.55;93096.56;5096727;28;20036;-78
2023/04/10 08:14:04;;;;;;;4.75;2.90;;;;;;;9.64;55.99;93089.84;5095390;28;20043;-77
2023/04/10 08:16:32;;;;;;;3.95;1.80;;;;;;;9.75;54.88;93090.59;5095000;28;20066;-77
2023/04/10 08:18:59;;;;;;;3.13;1.92;;;;;;;9.36;55.52;93097.19;5105939;28;20485;-76
2023/04/10 08:21:28;;;;;;;4.38;2.53;;;;;;;9.66;55.20;93077.28;5091826;28;20040;-76
2023/04/10 08:23:55;;;;;;;3.13;1.83;;;;;;;9.58;51.09;93099.50;5092970;28;20570;-77
2023/04/10 08:26:21;;;;;;;5.38;2.78;;;;;;;9.66;52.57;93103.44;5074791;28;20043;-77
2023/04/10 08:28:51;;;;;;;3.80;2.22;;;;;;;9.42;52.44;93105.81;5092648;28;20035;-77
2023/04/10 08:31:17;;;;;;;4.00;2.20;;;;;;;9.19;54.58;93109.75;5090760;28;20036;-75
2023/04/10 08:33:44;;;;;;;4.13;1.77;;;;;;;9.12;53.85;93098.78;5091608;28;20064;-76
2023/04/10 08:36:11;;;;;;;3.95;2.28;;;;;;;8.83;55.85;93103.72;5095649;28;20031;-76
2023/04/10 08:38:38;;;;;;;3.40;2.03;;;;;;;9.00;56.08;93100.84;5095274;28;20038;-76
2023/04/10 08:41:04;;;;;;;4.55;2.28;;;;;;;9.30;55.39;93089.59;5115486;28;20035;-76
2023/04/10 08:43:31;;;;;;;7.45;2.45;;;;;;;9.42;55.90;93086.75;5097821;28;20047;-76
2023/04/10 08:45:57;;;;;;;4.50;2.55;;;;;;;9.15;55.84;93106.88;5115415;28;20497;-76
2023/04/10 08:48:34;;;;;;;2.58;1.73;;;;;;;9.46;55.06;93090.41;5114806;28;20042;-76
2023/04/10 08:51:03;;;;;;;3.60;2.10;;;;;;;9.64;53.61;93104.75;5097053;28;20119;-76
2023/04/10 08:53:30;;;;;;;3.92;2.40;;;;;;;9.94;54.28;93099.41;5102835;28;20489;-76
2023/04/10 08:56:00;;;;;;;3.47;2.17;;;;;;;10.09;54.00;93095.19;5077187;28;20393;-77
2023/04/10 08:58:27;;;;;;;5.18;2.50;;;;;;;10.12;54.02;93089.41;5096492;28;20085;-76
2023/04/10 09:00:54;;;;;;;4.60;2.80;;;;;;;10.11;54.01;93099.09;5114832;28;20050;-77
2023/04/10 09:03:21;;;;;;;4.35;2.20;;;;;;;10.17;53.91;93095.41;5114540;28;20042;-77
2023/04/10 09:05:47;;;;;;;4.35;2.10;;;;;;;10.35;54.73;93098.50;5114794;28;20039;-76
2023/04/10 09:08:14;;;;;;;4.35;2.40;;;;;;;10.32;54.08;93097.22;5114822;28;20046;-77
2023/04/10 09:10:40;;;;;;;4.65;2.65;;;;;;;10.30;52.89;93096.69;5114274;28;20040;-76
2023/04/10 09:13:06;;;;;;;3.38;2.13;;;;;;;10.30;54.27;93101.16;5091383;28;20042;-77
2023/04/10 09:15:55;;;;;;;3.40;2.25;;;;;;;10.23;53.47;93098.03;5096901;28;20051;-77
2023/04/10 09:18:21;;;;;;;4.20;2.28;;;;;;;10.21;53.50;93090.44;5092447;28;20111;-76
2023/04/10 09:20:50;;;;;;;5.05;2.75;;;;;;;10.22;52.66;93084.13;5094120;28;20477;-76
2023/04/10 09:23:20;;;;;;;4.30;2.63;;;;;;;10.39;54.04;93078.59;5095317;28;20500;-76
2023/04/10 09:25:46;;;;;;;3.92;2.22;;;;;;;10.57;52.47;93075.34;5091953;28;20607;-77
2023/04/10 09:28:12;;;;;;;4.90;3.20;;;;;;;10.46;51.71;93084.31;5093588;28;20056;-76
2023/04/10 09:30:39;;;;;;;3.95;2.50;;;;;;;10.60;52.07;93082.69;5094780;28;20032;-76
2023/04/10 09:33:21;;;;;;;4.18;2.47;;;;;;;10.69;52.07;93082.09;5107436;28;20444;-76
2023/04/10 09:35:47;;;;;;;4.00;2.47;;;;;;;10.66;52.33;93067.72;5113469;28;20043;-76
2023/04/10 09:38:17;;;;;;;5.50;2.58;;;;;;;10.72;51.73;93073.72;5114067;28;20032;-76
2023/04/10 09:40:44;;;;;;;3.90;2.28;;;;;;;10.91;52.52;93082.47;5114388;27;20139;-76
2023/04/10 09:43:26;;;;;;;5.72;2.92;;;;;;;11.06;51.87;93067.69;5111511;28;20062;-75
2023/04/10 09:45:55;;;;;;;4.43;2.70;;;;;;;11.11;50.03;93063.19;5063631;28;20028;-77
2023/04/10 09:48:22;;;;;;;4.03;2.30;;;;;;;10.79;50.27;93067.09;5113987;28;20039;-76
2023/04/10 09:50:47;;;;;;;4.15;2.35;;;;;;;10.58;50.73;93065.66;5091512;28;20370;-77
2023/04/10 09:53:18;;;;;;;6.10;3.28;;;;;;;10.55;50.77;93061.75;5095797;28;20115;-76
2023/04/10 09:55:44;;;;;;;3.95;2.42;;;;;;;10.81;50.37;93061.59;5106796;28;20042;-77
2023/04/10 09:58:11;;;;;;;3.80;2.20;;;;;;;10.69;50.22;93063.75;5102303;28;20028;-77
2023/04/10 10:00:43;;;;;;;3.28;2.03;;;;;;;10.77;51.15;93053.50;5098353;28;20036;-77
2023/04/10 10:03:11;;;;;;;3.92;2.30;;;;;;;11.10;49.35;93050.34;5098597;28;20066;-78
2023/04/10 10:05:42;;;;;;;4.25;2.53;;;;;;;11.24;48.54;93056.53;5101312;28;20388;-77
2023/04/10 10:08:26;;;;;;;5.05;3.08;;;;;;;11.30;49.41;93068.50;5114072;28;20089;-77
2023/04/10 10:10:57;;;;;;;3.78;2.42;;;;;;;11.15;49.62;93058.97;5080320;28;20038;-77
2023/04/10 10:13:48;;;;;;;3.92;2.42;;;;;;;11.27;50.17;93066.47;5108378;28;20035;-76
2023/04/10 10:16:26;;;;;;;4.78;2.75;;;;;;;11.56;47.50;93068.31;5097509;28;20116;-78
2023/04/10 10:19:15;;;;;;;5.22;2.85;;;;;;;11.13;48.02;93055.84;5092648;28;20032;-78
2023/04/10 10:21:44;;;;;;;7.70;3.00;;;;;;;11.58;47.93;93050.44;5112013;28;20160;-78
2023/04/10 10:24:11;;;;;;;3.55;2.42;;;;;;;11.52;48.08;93052.31;5097616;28;20378;-78
2023/04/10 10:26:38;;;;;;;5.60;2.83;;;;;;;11.76;46.58;93041.09;5108945;28;20051;-78
2023/04/10 10:29:09;;;;;;;3.78;2.45;;;;;;;11.87;47.39;93053.03;5100228;28;20095;-78
2023/04/10 10:31:36;;;;;;;5.63;3.08;;;;;;;11.72;46.81;93045.31;5098871;28;20089;-78
2023/04/10 10:34:05;;;;;;;4.55;2.53;;;;;;;11.67;47.85;93040.91;5093844;28;20031;-77
2023/04/10 10:36:33;;;;;;;4.90;2.72;;;;;;;11.71;47.98;93041.94;5110119;28;20059;-77
2023/04/10 10:39:33;;;;;;;4.60;2.67;;;;;;;11.09;48.16;93048.81;5092292;28;20027;-78
2023/04/10 10:42:06;;;;;;;4.28;2.72;;;;;;;11.33;47.88;93046.25;5096932;28;20032;-78
2023/04/10 10:44:37;;;;;;;4.63;2.92;;;;;;;11.59;46.81;93054.63;5108968;28;20049;-78
2023/04/10 10:47:26;;;;;;;5.67;3.20;;;;;;;11.94;46.55;93047.47;5105815;28;20406;-78
2023/04/10 10:50:03;;;;;;;5.30;3.30;;;;;;;12.06;46.88;93039.97;5099496;28;20032;-78
2023/04/10 10:52:43;;;;;;;8.75;4.95;;;;;;;11.80;46.28;93031.59;5094732;28;20043;-78
2023/04/10 10:55:21;;;;;;;7.72;2.97;;;;;;;11.79;49.02;93019.53;5094469;28;20469;-77
2023/04/10 10:57:51;;;;;;;6.78;3.45;;;;;;;11.80;47.18;93024.50;5107136;28;20035;-78
2023/04/10 11:00:18;;;;;;;5.90;3.78;;;;;;;11.58;47.41;93014.53;5094928;28;20042;-78
2023/04/10 11:02:43;;;;;;;5.03;3.40;;;;;;;11.61;47.32;93028.91;5097876;28;20512;-78
2023/04/10 11:05:09;;;;;;;8.15;4.30;;;;;;;11.57;47.73;93027.91;5096599;28;20095;-77
2023/04/10 11:08:00;;;;;;;4.68;2.58;;;;;;;11.81;46.68;93017.41;5100449;28;20044;-78
2023/04/10 11:11:05;;;;;;;4.40;2.72;;;;;;;11.87;47.21;93013.69;5094379;28;20089;-78
2023/04/10 11:13:37;;;;;;;4.22;2.70;;;;;;;11.77;46.89;93017.19;5093903;28;20032;-77
2023/04/10 11:16:05;;;;;;;4.67;3.30;;;;;;;11.95;46.96;93012.28;5107691;28;20035;-77
2023/04/10 11:18:43;;;;;;;6.63;4.30;;;;;;;12.07;46.35;93010.84;5111436;28;20285;-78
2023/04/10 11:21:13;;;;;;;5.43;2.92;;;;;;;11.98;45.81;93009.91;5109018;28;20031;-78
2023/04/10 11:24:04;;;;;;;4.32;2.88;;;;;;;11.61;46.96;93016.56;5112455;28;20072;-78
2023/04/10 11:26:37;;;;;;;7.20;3.40;;;;;;;11.78;47.38;93021.38;5105751;28;20135;-78
2023/04/10 11:29:11;;;;;;;5.20;3.22;;;;;;;11.79;47.65;93019.53;5095293;28;20055;-77
2023/04/10 11:31:38;;;;;;;5.38;3.50;;;;;;;11.73;47.27;93010.97;5112518;28;20035;-78
2023/04/10 11:34:06;;;;;;;5.80;2.97;;;;;;;11.90;47.03;93004.50;5113622;28;20038;-78
2023/04/10 11:36:38;;;;;;;6.10;3.50;;;;;;;12.24;46.92;93010.34;5110767;28;20036;-78
2023/04/10 11:39:14;;;;;;;5.35;3.28;;;;;;;12.30;46.44;92997.94;5104470;28;20052;-78
2023/04/10 11:41:46;;;;;;;6.65;3.75;;;;;;;12.25;47.34;92998.00;5100569;28;20074;-78
2023/04/10 11:44:25;;;;;;;6.63;3.33;;;;;;;12.52;47.63;92997.38;5078133;28;20048;-78
2023/04/10 11:46:52;;;;;;;7.57;3.30;;;;;;;12.32;45.39;92990.56;5099722;28;20393;-78
2023/04/10 11:49:22;;;;;;;4.82;3.03;;;;;;;12.75;46.72;92997.56;5081117;28;20031;-78
2023/04/10 11:51:49;;;;;;;6.45;3.40;;;;;;;12.42;46.26;92987.78;5091119;28;20039;-78
2023/04/10 11:54:21;;;;;;;5.57;3.22;;;;;;;12.44;46.43;92998.00;5088918;28;20062;-78
2023/04/10 11:57:02;;;;;;;6.00;3.80;;;;;;;12.02;46.00;92989.13;5110673;28;20477;-78
2023/04/10 11:59:29;;;;;;;4.85;3.30;;;;;;;11.71;46.62;92986.03;5094226;28;20035;-77
2023/04/10 12:02:08;;;;;;;4.53;2.90;;;;;;;11.91;47.00;93000.78;5094245;28;20028;-78